Teoman A — TCA4008 — position and weather

sailwx.info

Track history (hours):
 
Tides and Currents Weather Stations Pressure Air Temp Water Temp Dewpoint Dewpoint Depression Visibility Wind Speed Wind Dir Waves Ship Positions

Teoman A

Last reported at 2017-Nov-18 17:23 UTC. Time now 2017-Nov-20 12:00 UTC.
Position N 36°00' W 005°17'.

Length 199 m; draft 10.6 m.

Type: Ship (hazmat cat A). MMSI: 271044450.

Date/timePositionNaut miles runAvg speedWind from/ knotsBaromVisibWave heightAir tempDewpointWater temp
2017-Nov-18 17:23N 36°00' W 005°17'512.4
2017-Nov-18 17:00N 35°59' W 005°22'510.0
2017-Nov-18 16:30N 35°59' W 005°28'611.0
2017-Nov-18 16:00N 36°01' W 005°22'611.4
2017-Nov-18 15:30N 36°03' W 005°16'  
2017-Nov-15 07:40N 36°60' E 013°41'211.2
2017-Nov-15 07:30N 36°59' E 013°43'611.3
2017-Nov-15 07:00N 36°56' E 013°49'3210.9
2017-Nov-15 04:05N 36°41' E 014°25'211.4
2017-Nov-15 03:55N 36°40' E 014°27'1311.1
2017-Nov-15 02:47N 36°37' E 014°42'411.2
2017-Nov-15 02:25N 36°36' E 014°47'511.2
2017-Nov-15 01:56N 36°35' E 014°53'611.5
2017-Nov-15 01:23N 36°33' E 015°01'511.3
2017-Nov-15 00:56N 36°33' E 015°07'413 8.8
2017-Nov-13 01:59N 37°57' E 023°36'0 0.0
2017-Nov-13 01:29N 37°57' E 023°36'0 0.0
2017-Nov-13 00:59N 37°57' E 023°36'0 0.0
2017-Nov-13 00:29N 37°57' E 023°36'0 0.0
2017-Nov-12 23:59N 37°57' E 023°36'0 0.0
2017-Nov-12 23:29N 37°57' E 023°36'0 0.0
2017-Nov-12 22:59N 37°57' E 023°36'0 0.0
2017-Nov-12 22:29N 37°57' E 023°36'0 0.0
2017-Nov-12 21:59N 37°57' E 023°36'0 0.0
2017-Nov-12 21:29N 37°57' E 023°36'0 0.0
2017-Nov-12 20:59N 37°57' E 023°36'0 0.0
2017-Nov-12 20:29N 37°57' E 023°36'0 0.0
2017-Nov-12 19:59N 37°57' E 023°36'0 0.0
2017-Nov-12 19:29N 37°57' E 023°36'0 0.0
2017-Nov-12 18:59N 37°57' E 023°36'0 0.0
2017-Nov-12 18:29N 37°57' E 023°36'0 0.0
2017-Nov-12 17:59N 37°57' E 023°36'0 0.0
2017-Nov-12 17:30N 37°57' E 023°36'1 2.8
2017-Nov-12 17:00N 37°56' E 023°36'1 2.2
2017-Nov-12 16:31N 37°55' E 023°36'0 0.7
2017-Nov-12 16:01N 37°55' E 023°36'0 0.7
2017-Nov-12 15:31N 37°55' E 023°36'1 1.1
2017-Nov-12 15:01N 37°55' E 023°37'1 2.7
2017-Nov-12 14:31N 37°54' E 023°37'4 7.5
2017-Nov-12 14:01N 37°50' E 023°40'612.7
2017-Nov-12 13:31N 37°45' E 023°43'612.6
2017-Nov-12 13:01N 37°39' E 023°48'612.6
2017-Nov-12 12:31N 37°36' E 023°54'1012.0
2017-Nov-12 11:41N 37°36' E 024°07'1111.7
2017-Nov-12 10:46N 37°44' E 024°15'812.7
2017-Nov-12 10:07N 37°49' E 024°24'712.0
2017-Nov-12 09:32N 37°52' E 024°32'63 1.8
2017-Nov-10 21:53N 37°41' E 025°51'512.2
2017-Nov-10 21:30N 37°37' E 025°51'612.2
2017-Nov-10 21:00N 37°31' E 025°52'23611.0
2017-Nov-09 23:33N 35°59' E 030°23'5711.7
2017-Nov-09 18:39N 35°56' E 031°34'311.5
2017-Nov-09 18:25N 35°56' E 031°37'  
Track history (hours):
 
Tides and Currents Weather Stations Pressure Air Temp Water Temp Dewpoint Dewpoint Depression Visibility Wind Speed Wind Dir Waves Ship Positions

Teoman A

Last reported at 2017-Nov-18 17:23 UTC. Time now 2017-Nov-20 12:00 UTC.
Position N 36°00' W 005°17'.

Length 199 m; draft 10.6 m.

Type: Ship (hazmat cat A). MMSI: 271044450.

Date/timePositionNaut miles runAvg speedWind from/ knotsBaromVisibWave heightAir tempDewpointWater temp
2017-Nov-18 17:23N 36°00' W 005°17'512.4
2017-Nov-18 17:00N 35°59' W 005°22'510.0
2017-Nov-18 16:30N 35°59' W 005°28'611.0
2017-Nov-18 16:00N 36°01' W 005°22'611.4
2017-Nov-18 15:30N 36°03' W 005°16'  
2017-Nov-15 07:40N 36°60' E 013°41'211.2
2017-Nov-15 07:30N 36°59' E 013°43'611.3
2017-Nov-15 07:00N 36°56' E 013°49'3210.9
2017-Nov-15 04:05N 36°41' E 014°25'211.4
2017-Nov-15 03:55N 36°40' E 014°27'1311.1
2017-Nov-15 02:47N 36°37' E 014°42'411.2
2017-Nov-15 02:25N 36°36' E 014°47'511.2
2017-Nov-15 01:56N 36°35' E 014°53'611.5
2017-Nov-15 01:23N 36°33' E 015°01'511.3
2017-Nov-15 00:56N 36°33' E 015°07'413 8.8
2017-Nov-13 01:59N 37°57' E 023°36'0 0.0
2017-Nov-13 01:29N 37°57' E 023°36'0 0.0
2017-Nov-13 00:59N 37°57' E 023°36'0 0.0
2017-Nov-13 00:29N 37°57' E 023°36'0 0.0
2017-Nov-12 23:59N 37°57' E 023°36'0 0.0
2017-Nov-12 23:29N 37°57' E 023°36'0 0.0
2017-Nov-12 22:59N 37°57' E 023°36'0 0.0
2017-Nov-12 22:29N 37°57' E 023°36'0 0.0
2017-Nov-12 21:59N 37°57' E 023°36'0 0.0
2017-Nov-12 21:29N 37°57' E 023°36'0 0.0
2017-Nov-12 20:59N 37°57' E 023°36'0 0.0
2017-Nov-12 20:29N 37°57' E 023°36'0 0.0
2017-Nov-12 19:59N 37°57' E 023°36'0 0.0
2017-Nov-12 19:29N 37°57' E 023°36'0 0.0
2017-Nov-12 18:59N 37°57' E 023°36'0 0.0
2017-Nov-12 18:29N 37°57' E 023°36'0 0.0
2017-Nov-12 17:59N 37°57' E 023°36'0 0.0
2017-Nov-12 17:30N 37°57' E 023°36'1 2.8
2017-Nov-12 17:00N 37°56' E 023°36'1 2.2
2017-Nov-12 16:31N 37°55' E 023°36'0 0.7
2017-Nov-12 16:01N 37°55' E 023°36'0 0.7
2017-Nov-12 15:31N 37°55' E 023°36'1 1.1
2017-Nov-12 15:01N 37°55' E 023°37'1 2.7
2017-Nov-12 14:31N 37°54' E 023°37'4 7.5
2017-Nov-12 14:01N 37°50' E 023°40'612.7
2017-Nov-12 13:31N 37°45' E 023°43'612.6
2017-Nov-12 13:01N 37°39' E 023°48'612.6
2017-Nov-12 12:31N 37°36' E 023°54'1012.0
2017-Nov-12 11:41N 37°36' E 024°07'1111.7
2017-Nov-12 10:46N 37°44' E 024°15'812.7
2017-Nov-12 10:07N 37°49' E 024°24'712.0
2017-Nov-12 09:32N 37°52' E 024°32'63 1.8
2017-Nov-10 21:53N 37°41' E 025°51'512.2
2017-Nov-10 21:30N 37°37' E 025°51'612.2
2017-Nov-10 21:00N 37°31' E 025°52'23611.0
2017-Nov-09 23:33N 35°59' E 030°23'5711.7
2017-Nov-09 18:39N 35°56' E 031°34'311.5
2017-Nov-09 18:25N 35°56' E 031°37'  

Dump ship's entire track history